Time;durP1;ratioP1;P1;durP2;ratioP2;P2;SDS_P1;SDS_P2;PMS_P1;PMS_P2;Temp;Humidity;BMP_temperature;BMP_pressure;BME280_temperature;BME280_humidity;BME280_pressure;Samples;Min_cycle;Max_cycle;Signal;HPM_P1;HPM_P2
2022/09/24 00:00:57;;;;;;;7.72;3.92;;;18.60;99.90;;;18.57;69.89;98850.72;5092033;27;20043;-75
2022/09/24 00:03:29;;;;;;;5.32;3.88;;;18.50;99.90;;;18.60;69.93;98850.09;5106038;27;20588;-75
2022/09/24 00:06:01;;;;;;;5.20;3.85;;;18.50;99.90;;;18.60;70.53;98852.84;5106460;27;20040;-75
2022/09/24 00:08:28;;;;;;;6.45;3.88;;;18.50;99.90;;;18.64;70.20;98853.78;5071801;27;20074;-75
2022/09/24 00:10:56;;;;;;;5.38;4.15;;;18.60;99.90;;;18.58;70.31;98849.59;5111651;27;20058;-75
2022/09/24 00:13:22;;;;;;;7.28;4.18;;;18.60;99.90;;;18.57;70.17;98842.47;5077566;27;20040;-75
2022/09/24 00:15:49;;;;;;;5.25;4.30;;;18.50;99.90;;;18.55;69.98;98845.56;5090514;28;20047;-75
2022/09/24 00:18:16;;;;;;;5.38;3.60;;;18.50;99.90;;;18.53;69.73;98847.03;5086736;27;20078;-75
2022/09/24 00:20:42;;;;;;;7.55;3.40;;;18.50;99.90;;;18.55;70.44;98844.75;5091343;27;20039;-75
2022/09/24 00:23:09;;;;;;;6.80;3.75;;;18.50;99.90;;;18.55;70.83;98837.31;5107754;27;20036;-75
2022/09/24 00:28:29;;;;;;;8.00;4.00;;;18.50;99.90;;;18.57;69.89;98834.22;5091467;27;20071;-75
2022/09/24 00:30:58;;;;;;;6.85;4.20;;;18.50;99.90;;;18.55;69.92;98836.50;5106001;27;20173;-75
2022/09/24 00:33:27;;;;;;;6.55;3.78;;;18.50;99.90;;;18.54;69.83;98835.69;5089990;28;20035;-74
2022/09/24 00:35:57;;;;;;;6.80;4.10;;;18.50;99.90;;;18.53;69.86;98827.78;5122364;27;20518;-75
2022/09/24 00:38:24;;;;;;;5.38;4.22;;;18.50;99.90;;;18.50;70.60;98833.94;5095313;27;20497;-75
2022/09/24 00:40:49;;;;;;;7.15;4.15;;;18.40;99.90;;;18.54;70.88;98834.88;5105277;27;20043;-74
2022/09/24 00:43:27;;;;;;;8.52;4.68;;;18.50;99.90;;;18.55;70.15;98840.06;5093795;28;20059;-74
2022/09/24 00:45:57;;;;;;;4.70;3.60;;;18.40;99.90;;;18.56;69.46;98838.13;5104023;28;20040;-74
2022/09/24 00:48:23;;;;;;;6.90;4.17;;;18.40;99.90;;;18.51;69.88;98832.78;5089985;27;20048;-74
2022/09/24 00:50:49;;;;;;;7.03;4.13;;;18.40;99.90;;;18.49;69.62;98835.84;5088332;28;20055;-74
2022/09/24 00:53:18;;;;;;;5.32;3.75;;;18.40;99.90;;;18.50;70.39;98829.25;5089676;28;20123;-74
2022/09/24 00:55:47;;;;;;;7.07;3.85;;;18.40;99.90;;;18.52;70.33;98827.00;5088532;28;20047;-74
2022/09/24 00:58:13;;;;;;;6.25;4.78;;;18.40;99.90;;;18.50;70.68;98815.50;5074923;28;20078;-74
2022/09/24 01:00:41;;;;;;;5.05;3.67;;;18.40;99.90;;;18.46;70.04;98816.47;5084978;28;20126;-75
2022/09/24 01:03:18;;;;;;;7.80;3.92;;;18.40;99.90;;;18.50;69.74;98812.75;5105385;27;20161;-74
2022/09/24 01:05:44;;;;;;;6.85;4.07;;;18.40;99.90;;;18.47;69.76;98818.91;5074129;28;20128;-75
2022/09/24 01:08:13;;;;;;;7.50;4.82;;;18.40;99.90;;;18.42;70.14;98824.56;5092461;28;20429;-75
2022/09/24 01:10:54;;;;;;;6.55;4.63;;;18.40;99.90;;;18.45;70.85;98815.69;5084484;28;20151;-74
2022/09/24 01:13:45;;;;;;;7.77;4.43;;;18.30;99.90;;;18.47;70.78;98818.09;5103272;28;20509;-74
2022/09/24 01:16:32;;;;;;;9.23;5.07;;;18.40;99.90;;;18.46;69.98;98811.78;5105035;28;20040;-74
2022/09/24 01:19:52;;;;;;;6.68;4.53;;;18.30;99.90;;;18.43;70.05;98802.25;5106463;28;20130;-74
2022/09/24 01:22:59;;;;;;;4.43;3.42;;;18.40;99.90;;;18.46;69.43;98808.25;5084823;28;20122;-74
2022/09/24 01:25:47;;;;;;;7.03;4.32;;;18.30;99.90;;;18.43;70.32;98807.75;5101986;28;20051;-74
2022/09/24 01:28:39;;;;;;;5.40;3.90;;;18.40;99.90;;;18.43;70.59;98816.00;5084090;28;20047;-74
2022/09/24 01:31:13;;;;;;;;;;;18.40;99.90;;;18.43;70.36;98807.75;5101439;28;20058;-74
2022/09/24 01:33:42;;;;;;;8.05;5.35;;;18.40;99.90;;;18.40;70.03;98796.63;5074667;28;20114;-74
2022/09/24 01:36:08;;;;;;;6.30;4.78;;;18.40;99.90;;;18.40;69.76;98791.13;5074773;28;20428;-74
2022/09/24 01:38:39;;;;;;;5.38;3.65;;;18.30;99.90;;;18.41;69.85;98793.53;5075452;28;20046;-74
2022/09/24 01:41:06;;;;;;;5.80;4.18;;;18.30;99.90;;;18.44;70.03;98789.34;5083171;28;20043;-74
2022/09/24 01:43:32;;;;;;;7.72;4.30;;;18.30;99.90;;;18.39;70.70;98792.25;5088847;28;20035;-74
2022/09/24 01:46:00;;;;;;;6.43;4.30;;;18.30;99.90;;;18.43;70.78;98793.22;5107469;28;20044;-74
2022/09/24 01:48:26;;;;;;;8.00;4.88;;;18.40;99.90;;;18.40;69.92;98791.13;5105925;28;20039;-74
2022/09/24 01:51:21;;;;;;;5.63;4.53;;;18.30;99.90;;;18.41;69.79;98788.03;5076909;28;20130;-74
2022/09/24 01:53:52;;;;;;;5.45;3.95;;;18.30;99.90;;;18.41;69.89;98787.25;5098067;27;20362;-74
2022/09/24 01:56:36;;;;;;;5.90;4.60;;;18.30;99.90;;;18.36;70.34;98790.97;5090661;28;20046;-74
2022/09/24 01:59:09;;;;;;;7.63;5.00;;;18.30;99.90;;;18.39;70.75;98787.59;5095857;27;21301;-74
2022/09/24 02:01:55;;;;;;;7.45;3.95;;;18.30;99.90;;;18.39;70.21;98790.34;5093195;27;20450;-74
2022/09/24 02:04:21;;;;;;;6.72;4.60;;;18.30;99.90;;;18.40;69.86;98783.69;5095259;27;20036;-74
2022/09/24 02:06:58;;;;;;;6.55;4.68;;;18.30;99.90;;;18.40;69.68;98786.44;5086325;28;20046;-74
2022/09/24 02:09:29;;;;;;;6.13;3.88;;;18.30;99.90;;;18.40;69.65;98785.63;5091563;28;20380;-74
2022/09/24 02:11:57;;;;;;;6.38;4.15;;;18.30;99.90;;;18.35;69.96;98783.88;5105025;27;20562;-74
2022/09/24 02:14:24;;;;;;;6.40;5.03;;;18.30;99.90;;;18.34;70.53;98785.00;5076202;28;20036;-75
2022/09/24 02:16:51;;;;;;;5.75;4.15;;;18.30;99.90;;;18.40;70.47;98786.44;5094091;28;20044;-75
2022/09/24 02:19:21;;;;;;;8.05;4.10;;;18.30;99.90;;;18.35;70.00;98786.63;5090934;27;20100;-75
2022/09/24 02:21:47;;;;;;;5.13;4.13;;;18.30;99.90;;;18.36;70.03;98785.47;5077749;27;20062;-75
2022/09/24 02:24:22;;;;;;;7.28;4.88;;;18.30;99.90;;;18.39;69.33;98786.75;5093998;28;20463;-75
2022/09/24 02:26:48;;;;;;;5.95;4.53;;;18.30;99.90;;;18.34;69.71;98776.78;5077305;27;20054;-75
2022/09/24 02:29:14;;;;;;;5.57;4.32;;;18.20;99.90;;;18.34;70.17;98785.00;5086129;27;20063;-75
2022/09/24 02:31:42;;;;;;;7.05;4.50;;;18.20;99.90;;;18.32;70.49;98783.69;5092130;27;20044;-75
2022/09/24 02:34:20;;;;;;;5.75;4.28;;;18.20;99.90;;;18.31;70.09;98782.09;5085252;28;20126;-75
2022/09/24 02:36:53;;;;;;;7.85;5.00;;;18.20;99.90;;;18.33;69.67;98783.38;5082339;27;20406;-75
2022/09/24 02:39:20;;;;;;;8.80;5.03;;;18.20;99.90;;;18.33;69.50;98783.38;5108230;27;20116;-75
2022/09/24 02:41:47;;;;;;;7.35;4.68;;;18.20;99.90;;;18.31;69.46;98769.16;5108181;27;20304;-75
2022/09/24 02:44:16;;;;;;;10.13;5.20;;;18.20;99.90;;;18.28;69.65;98778.06;5087588;27;20505;-75
2022/09/24 02:46:43;;;;;;;6.68;4.28;;;18.20;99.90;;;18.33;70.21;98772.41;5092581;28;20048;-75
2022/09/24 02:49:09;;;;;;;4.88;4.25;;;18.20;99.90;;;18.30;70.57;98761.28;5093284;27;20035;-75
2022/09/24 02:51:35;;;;;;;6.68;4.97;;;18.20;99.90;;;18.30;69.93;98762.06;5099621;27;20048;-75
2022/09/24 02:54:03;;;;;;;6.50;4.57;;;18.20;99.90;;;18.31;69.64;98758.19;5092922;27;20092;-75
2022/09/24 02:56:29;;;;;;;6.65;4.80;;;18.20;99.90;;;18.31;69.20;98763.66;5059649;28;20526;-75
2022/09/24 02:58:54;;;;;;;4.95;4.25;;;18.20;99.90;;;18.28;69.26;98763.53;5107499;27;20058;-75
2022/09/24 03:01:21;;;;;;;4.57;3.90;;;18.20;99.90;;;18.21;70.37;98764.81;5086342;28;20070;-75
2022/09/24 03:03:47;;;;;;;4.75;4.07;;;18.10;99.90;;;18.28;70.31;98772.56;5078145;27;20048;-75
2022/09/24 03:06:13;;;;;;;8.73;5.03;;;18.20;99.90;;;18.27;69.76;98770.13;5109246;27;20093;-75
2022/09/24 03:08:43;;;;;;;6.70;4.68;;;18.10;99.90;;;18.28;69.85;98771.75;5092216;28;20530;-75
2022/09/24 03:11:10;;;;;;;4.05;3.65;;;18.20;99.90;;;18.26;69.66;98769.34;5068989;27;20459;-75
2022/09/24 03:13:39;;;;;;;5.72;3.90;;;18.10;99.90;;;18.26;69.35;98768.53;5072916;28;20040;-75
2022/09/24 03:16:06;;;;;;;8.43;4.50;;;18.10;99.90;;;18.25;69.33;98764.97;5090659;28;20465;-75
2022/09/24 03:18:32;;;;;;;4.63;4.13;;;18.20;99.90;;;18.20;70.30;98760.47;5105976;27;20066;-75
2022/09/24 03:21:03;;;;;;;5.88;3.50;;;18.10;99.90;;;18.20;70.58;98765.97;5090383;28;20032;-75
2022/09/24 03:23:29;;;;;;;6.03;4.15;;;18.10;99.90;;;18.25;69.81;98761.44;5072309;27;20092;-75
2022/09/24 03:25:55;;;;;;;4.10;3.65;;;18.10;99.90;;;18.20;69.77;98756.91;5090550;27;20046;-75
2022/09/24 03:28:22;;;;;;;5.57;4.18;;;18.10;99.90;;;18.21;69.48;98756.56;5102453;27;20044;-75
2022/09/24 03:30:59;;;;;;;6.15;4.32;;;18.10;99.90;;;18.25;69.30;98764.19;5082100;27;20138;-75
2022/09/24 03:33:28;;;;;;;6.25;3.92;;;18.20;99.90;;;18.19;70.24;98758.03;5111189;27;20065;-75
2022/09/24 03:36:24;;;;;;;4.95;4.45;;;18.10;99.90;;;18.21;70.03;98742.84;5109896;27;20039;-75
2022/09/24 03:38:54;;;;;;;6.10;4.80;;;18.10;99.90;;;18.20;69.71;98754.16;5066172;27;20466;-75
2022/09/24 03:41:20;;;;;;;6.68;4.53;;;18.10;99.90;;;18.19;69.81;98756.13;5088860;27;20044;-75
2022/09/24 03:43:46;;;;;;;4.95;3.85;;;18.10;99.90;;;18.20;68.70;98751.44;5090997;27;20040;-75
2022/09/24 03:46:15;;;;;;;5.88;4.30;;;18.00;99.90;;;18.17;69.33;98754.81;5102644;27;20057;-75
2022/09/24 03:48:42;;;;;;;5.63;4.43;;;18.00;99.90;;;18.20;69.78;98754.16;5091877;27;20137;-76
2022/09/24 03:51:17;;;;;;;5.88;4.50;;;18.00;99.90;;;18.22;70.11;98746.41;5090513;27;20502;-76
2022/09/24 03:53:44;;;;;;;5.50;4.30;;;18.00;99.90;;;18.20;68.61;98756.91;5086431;27;20122;-76
2022/09/24 03:56:10;;;;;;;6.53;5.00;;;18.00;99.90;;;18.21;67.82;98750.28;5091952;27;20749;-76
2022/09/24 03:58:37;;;;;;;8.50;5.38;;;18.10;99.90;;;18.18;67.26;98745.44;5075353;27;20131;-76
2022/09/24 04:01:08;;;;;;;5.57;4.65;;;18.00;99.90;;;18.19;66.50;98758.03;5093672;27;20117;-75
2022/09/24 04:03:35;;;;;;;7.15;4.85;;;18.00;99.90;;;18.22;67.01;98751.91;5108761;27;20059;-76
2022/09/24 04:06:01;;;;;;;4.63;4.03;;;18.00;99.90;;;18.21;68.34;98756.56;5089340;27;20043;-76
2022/09/24 04:08:27;;;;;;;7.47;5.32;;;18.10;99.90;;;18.15;68.79;98748.84;5092263;28;20048;-76
2022/09/24 04:10:54;;;;;;;5.80;4.80;;;18.00;99.90;;;18.16;67.64;98750.44;5090531;27;20483;-76
2022/09/24 04:13:20;;;;;;;5.43;4.80;;;18.10;99.90;;;18.15;66.78;98749.66;5101879;27;20040;-75
2022/09/24 04:15:47;;;;;;;6.40;5.18;;;18.10;99.90;;;18.16;66.17;98744.97;5107093;27;20036;-76
2022/09/24 04:18:13;;;;;;;8.27;5.00;;;18.00;99.90;;;18.18;65.65;98753.69;5087345;27;20442;-76
2022/09/24 04:20:40;;;;;;;6.18;4.50;;;18.00;99.90;;;18.22;67.12;98752.72;5086912;27;20036;-76
2022/09/24 04:23:06;;;;;;;5.68;4.30;;;18.10;99.90;;;18.17;67.34;98752.88;5108950;27;20534;-76
2022/09/24 04:25:33;;;;;;;8.45;4.60;;;18.10;99.90;;;18.20;66.69;98748.69;5092763;27;20358;-75
2022/09/24 04:28:01;;;;;;;5.80;4.72;;;18.00;99.90;;;18.25;65.35;98751.25;5071544;27;20092;-75
2022/09/24 04:30:28;;;;;;;6.50;5.22;;;18.10;99.90;;;18.28;64.50;98747.84;5088801;27;20042;-75
2022/09/24 04:32:55;;;;;;;5.72;4.97;;;18.00;99.90;;;18.26;64.79;98752.06;5097030;27;20039;-75
2022/09/24 04:35:22;;;;;;;4.85;4.25;;;18.10;99.90;;;18.25;65.43;98755.94;5060491;28;20039;-75
2022/09/24 04:37:48;;;;;;;6.13;3.92;;;18.10;99.90;;;18.31;65.31;98746.41;5070091;27;20765;-75
2022/09/24 04:40:15;;;;;;;4.72;4.05;;;18.10;99.90;;;18.32;65.64;98751.56;5072307;28;20051;-75
2022/09/24 04:42:43;;;;;;;6.25;4.55;;;18.10;99.90;;;18.28;64.84;98750.59;5090164;28;20047;-75
2022/09/24 04:45:10;;;;;;;5.00;4.45;;;18.10;99.90;;;18.34;64.48;98754.81;5090009;27;20059;-75
2022/09/24 04:47:39;;;;;;;6.60;4.50;;;18.10;99.90;;;18.34;64.22;98749.31;5071156;28;20043;-75
2022/09/24 04:50:06;;;;;;;5.30;4.65;;;18.20;99.90;;;18.40;63.73;98748.00;5096753;27;20059;-75
2022/09/24 04:52:32;;;;;;;7.85;5.05;;;18.10;99.90;;;18.39;64.26;98743.66;5100836;27;20224;-76
2022/09/24 04:54:59;;;;;;;5.05;3.45;;;18.20;99.90;;;18.51;64.51;98744.91;5105728;27;20040;-76
2022/09/24 04:57:27;;;;;;;6.65;4.47;;;18.20;99.90;;;18.48;64.04;98742.81;5085674;28;20039;-78
2022/09/24 04:59:53;;;;;;;5.93;4.82;;;18.30;99.90;;;18.51;63.41;98737.47;5055336;28;20620;-77
2022/09/24 05:02:19;;;;;;;4.47;4.03;;;18.30;99.90;;;18.49;63.24;98734.22;5072096;28;20032;-76
2022/09/24 05:04:46;;;;;;;6.40;4.80;;;18.20;99.90;;;18.50;63.16;98733.13;5068336;28;20052;-77
2022/09/24 05:07:12;;;;;;;5.22;3.90;;;18.20;99.90;;;18.57;62.67;98735.34;5086034;28;20483;-76
2022/09/24 05:09:38;;;;;;;5.93;4.45;;;18.30;99.90;;;18.67;62.58;98724.00;5088610;28;20118;-75
2022/09/24 05:12:04;;;;;;;4.55;4.15;;;18.30;99.90;;;18.68;63.23;98725.63;5088125;28;20095;-76
2022/09/24 05:14:30;;;;;;;6.75;4.93;;;18.40;99.90;;;18.73;62.40;98722.69;5087222;28;20077;-77
2022/09/24 05:16:56;;;;;;;4.78;4.30;;;18.40;99.90;;;18.74;62.01;98726.25;5097214;28;20049;-75
2022/09/24 05:19:22;;;;;;;4.95;4.45;;;18.40;99.90;;;18.80;61.64;98719.44;5073253;28;20134;-75
2022/09/24 05:21:48;;;;;;;9.20;4.82;;;18.40;99.90;;;18.81;61.34;98721.88;5087732;28;20068;-75
2022/09/24 05:24:15;;;;;;;7.20;4.35;;;18.50;99.90;;;18.84;61.58;98729.44;5074519;28;20039;-75
2022/09/24 05:29:27;;;;;;;5.35;4.70;;;18.50;99.90;;;18.92;61.35;98724.25;5103300;27;20040;-74
2022/09/24 05:31:53;;;;;;;5.97;4.60;;;18.60;99.90;;;18.98;61.31;98723.75;5087387;27;20050;-74
2022/09/24 05:34:19;;;;;;;7.40;5.05;;;18.60;99.90;;;19.01;60.57;98730.53;5091544;27;20299;-75
2022/09/24 05:36:45;;;;;;;11.05;4.63;;;18.60;99.90;;;19.02;60.33;98730.19;5078072;28;20044;-75
2022/09/24 05:39:14;;;;;;;4.32;3.92;;;18.60;99.90;;;19.03;60.33;98736.47;5089350;28;20231;-75
2022/09/24 05:41:40;;;;;;;6.05;5.18;;;18.70;99.90;;;19.08;60.26;98739.03;5095368;27;20043;-75
2022/09/24 05:44:10;;;;;;;5.47;4.20;;;18.70;99.90;;;19.15;60.50;98738.53;5075006;27;20048;-75
2022/09/24 05:46:36;;;;;;;3.92;3.60;;;18.70;99.90;;;19.13;60.07;98733.34;5104854;27;20039;-75
2022/09/24 05:49:02;;;;;;;6.60;4.20;;;18.70;99.90;;;19.20;60.04;98732.84;5090567;27;20040;-75
2022/09/24 05:51:28;;;;;;;6.30;4.25;;;18.80;99.90;;;19.20;59.73;98732.84;5104069;27;20138;-75
2022/09/24 05:53:54;;;;;;;6.10;4.30;;;18.80;99.90;;;19.24;59.54;98728.28;5104514;27;20108;-75
2022/09/24 05:56:20;;;;;;;6.22;4.72;;;18.80;99.90;;;19.28;59.36;98732.81;5104546;27;20168;-75
2022/09/24 05:58:49;;;;;;;7.50;4.55;;;18.90;99.90;;;19.34;59.01;98732.59;5108433;27;20645;-75
2022/09/24 06:01:16;;;;;;;5.30;4.38;;;18.90;99.90;;;19.38;58.84;98736.28;5103832;27;20108;-75
2022/09/24 06:03:42;;;;;;;6.85;4.55;;;18.90;99.90;;;19.38;59.10;98728.84;5109677;27;20054;-75
2022/09/24 06:06:08;;;;;;;6.10;4.90;;;18.90;99.90;;;19.41;59.13;98733.69;5104870;27;20455;-75
2022/09/24 06:08:34;;;;;;;5.88;5.07;;;19.00;99.90;;;19.43;59.14;98733.34;5109359;27;20040;-75
2022/09/24 06:11:05;;;;;;;5.53;4.18;;;18.90;99.90;;;19.45;59.10;98737.38;5086706;28;20042;-75
2022/09/24 06:13:33;;;;;;;6.68;4.40;;;18.90;99.90;;;19.48;58.91;98735.88;5105047;27;20074;-75
2022/09/24 06:16:01;;;;;;;5.15;4.32;;;19.00;99.90;;;19.49;58.80;98743.81;5108031;27;20052;-75
2022/09/24 06:18:27;;;;;;;6.57;5.45;;;19.00;99.90;;;19.53;58.69;98739.25;5070586;28;20044;-75
2022/09/24 06:20:54;;;;;;;5.63;4.28;;;19.10;99.90;;;19.54;58.97;98745.56;5080137;28;20426;-75
2022/09/24 06:23:20;;;;;;;5.03;4.53;;;19.10;99.90;;;19.63;58.90;98742.75;5092003;28;20044;-75
2022/09/24 06:25:52;;;;;;;5.00;4.30;;;19.10;99.90;;;19.63;58.71;98746.31;5085991;28;20477;-75
2022/09/24 06:28:18;;;;;;;6.95;4.72;;;19.10;99.90;;;19.60;59.03;98740.69;5073377;28;20126;-75
2022/09/24 06:30:44;;;;;;;5.05;4.55;;;19.20;99.90;;;19.62;58.72;98741.94;5111401;27;20073;-75
2022/09/24 06:33:11;;;;;;;8.23;4.90;;;19.20;99.90;;;19.65;58.68;98744.03;5110542;27;20044;-75
2022/09/24 06:35:42;;;;;;;8.05;4.53;;;19.20;99.90;;;19.72;58.55;98744.34;5094781;27;20040;-75
2022/09/24 06:38:11;;;;;;;6.47;4.75;;;19.20;99.90;;;19.75;58.64;98747.56;5093227;28;20043;-74
2022/09/24 06:40:37;;;;;;;6.10;4.72;;;19.20;99.90;;;19.81;58.35;98754.47;5094683;27;20067;-75
2022/09/24 06:43:07;;;;;;;6.75;4.97;;;19.30;99.90;;;19.80;58.29;98750.09;5096255;27;20071;-76
2022/09/24 06:45:34;;;;;;;5.93;4.38;;;19.30;99.90;;;19.78;58.26;98752.38;5092784;27;20135;-75
2022/09/24 06:48:00;;;;;;;6.40;4.85;;;19.30;99.90;;;19.82;58.09;98745.06;5108517;27;20072;-76
2022/09/24 06:50:28;;;;;;;7.35;5.13;;;19.40;99.90;;;19.83;58.18;98741.19;5088965;27;20465;-75
2022/09/24 06:52:55;;;;;;;5.07;4.57;;;19.40;99.90;;;19.86;58.20;98743.25;5088733;28;20048;-75
2022/09/24 06:55:21;;;;;;;6.15;5.10;;;19.40;99.90;;;19.88;58.28;98749.22;5108961;27;20060;-75
2022/09/24 06:57:47;;;;;;;5.55;4.13;;;19.40;99.90;;;19.93;58.12;98743.53;5077881;27;20570;-75
2022/09/24 07:00:14;;;;;;;5.50;4.28;;;19.40;99.90;;;19.97;57.76;98747.19;5111723;27;20055;-76
2022/09/24 07:02:40;;;;;;;5.97;4.05;;;19.50;99.90;;;20.00;57.59;98754.81;5072208;27;20044;-75
2022/09/24 07:05:07;;;;;;;5.47;4.50;;;19.50;99.90;;;19.99;57.65;98753.16;5076421;27;20056;-75
2022/09/24 07:07:33;;;;;;;10.07;5.35;;;19.50;99.90;;;20.01;57.61;98753.66;5089644;28;20058;-75
2022/09/24 07:10:02;;;;;;;5.95;4.75;;;19.50;99.90;;;20.06;57.55;98752.63;5091375;28;20066;-76
2022/09/24 07:12:29;;;;;;;6.40;4.22;;;19.50;99.90;;;20.08;57.69;98756.66;5092693;28;20370;-77
2022/09/24 07:14:56;;;;;;;9.35;4.40;;;19.60;99.90;;;20.06;57.53;98756.19;5089784;27;20035;-77
2022/09/24 07:17:23;;;;;;;6.18;4.47;;;19.60;99.90;;;20.08;57.52;98753.91;5072736;27;20039;-76
2022/09/24 07:19:49;;;;;;;7.35;4.60;;;19.60;99.90;;;20.12;57.18;98756.78;5092192;27;20097;-76
2022/09/24 07:22:15;;;;;;;5.03;4.50;;;19.60;99.90;;;20.15;57.07;98756.13;5088500;27;20523;-77
2022/09/24 07:24:42;;;;;;;7.65;4.25;;;19.70;99.90;;;20.19;57.12;98756.25;5094285;27;20051;-76
2022/09/24 07:27:08;;;;;;;5.38;4.28;;;19.70;99.90;;;20.20;57.07;98763.34;5095680;27;20047;-77
2022/09/24 07:29:34;;;;;;;5.82;4.20;;;19.70;99.90;;;20.22;57.04;98761.88;5076113;28;20035;-76
2022/09/24 07:32:02;;;;;;;6.22;4.00;;;19.70;99.90;;;20.24;57.24;98764.28;5106716;27;20101;-76
2022/09/24 07:34:28;;;;;;;5.80;3.80;;;19.80;99.90;;;20.26;56.97;98765.56;5089978;27;21019;-77
2022/09/24 07:36:55;;;;;;;4.70;4.03;;;19.80;99.90;;;20.25;56.79;98765.91;5093194;27;20439;-76
2022/09/24 07:39:24;;;;;;;5.20;4.30;;;19.80;99.90;;;20.28;56.92;98763.28;5072487;27;20069;-76
2022/09/24 07:41:56;;;;;;;6.45;5.35;;;19.90;99.90;;;20.30;56.81;98761.00;5059133;27;20078;-76
2022/09/24 07:44:22;;;;;;;;;;;19.90;99.90;;;20.31;56.89;98761.81;5107618;27;20421;-76
2022/09/24 07:46:51;;;;;;;8.90;4.68;;;19.90;99.90;;;20.32;56.60;98763.41;5095599;27;19923;-77
2022/09/24 07:49:17;;;;;;;6.85;4.40;;;19.90;99.90;;;20.37;56.64;98760.44;5077318;27;20386;-77
2022/09/24 07:51:43;;;;;;;6.55;4.15;;;20.00;99.90;;;20.37;56.57;98766.75;5076219;27;20052;-77
2022/09/24 07:54:10;;;;;;;7.40;3.65;;;20.00;99.90;;;20.41;56.37;98761.38;5075214;27;20044;-77
2022/09/24 07:56:36;;;;;;;6.00;4.45;;;20.00;99.90;;;20.42;56.48;98762.19;5090981;27;20043;-77
2022/09/24 07:59:04;;;;;;;7.05;4.18;;;20.00;99.90;;;20.46;56.64;98755.66;5106865;27;20044;-77
2022/09/24 08:01:30;;;;;;;6.28;4.38;;;20.10;99.90;;;20.45;56.66;98755.97;5063799;27;20046;-76
2022/09/24 08:03:58;;;;;;;9.93;5.05;;;20.10;99.90;;;20.45;56.51;98767.00;5089244;28;20135;-77
2022/09/24 08:06:24;;;;;;;6.22;4.25;;;20.00;99.90;;;20.48;56.35;98761.63;5077113;27;20046;-76
2022/09/24 08:08:51;;;;;;;6.63;4.18;;;20.10;99.90;;;20.50;56.12;98764.03;5093413;28;20692;-76
2022/09/24 08:11:18;;;;;;;5.45;4.32;;;20.10;99.90;;;20.52;55.93;98767.25;5108282;27;20114;-77
2022/09/24 08:13:44;;;;;;;7.40;4.00;;;20.10;99.90;;;20.56;56.03;98774.53;5076290;27;20131;-77
2022/09/24 08:16:10;;;;;;;6.78;4.32;;;20.20;99.90;;;20.53;56.21;98768.84;5073372;28;20043;-77
2022/09/24 08:18:36;;;;;;;5.68;3.58;;;20.20;99.90;;;20.59;56.08;98773.84;5088919;27;20047;-77
2022/09/24 08:21:10;;;;;;;7.80;4.07;;;20.20;99.90;;;20.62;55.79;98764.09;5106579;27;20448;-77
2022/09/24 08:23:38;;;;;;;9.20;4.40;;;20.20;99.90;;;20.63;55.63;98762.94;5080023;27;20126;-77
2022/09/24 08:26:05;;;;;;;9.70;4.40;;;20.30;99.90;;;20.64;55.88;98770.06;5091546;27;20043;-77
2022/09/24 08:28:31;;;;;;;8.13;4.53;;;20.30;99.90;;;20.67;55.94;98771.34;5093357;27;20042;-77
2022/09/24 08:31:03;;;;;;;6.53;4.65;;;20.30;99.90;;;20.67;55.84;98774.09;5075407;28;20043;-77
2022/09/24 08:33:31;;;;;;;6.38;3.97;;;20.30;99.90;;;20.66;56.17;98770.53;5110329;27;20043;-77
2022/09/24 08:36:04;;;;;;;6.90;4.38;;;20.30;99.90;;;20.73;55.84;98769.97;5080777;27;20499;-77
2022/09/24 08:38:30;;;;;;;6.63;4.55;;;20.40;99.90;;;20.74;55.58;98766.09;5081976;28;20166;-77
2022/09/24 08:40:59;;;;;;;5.75;4.65;;;20.40;99.90;;;20.73;55.71;98767.22;5110713;27;20039;-77
2022/09/24 08:43:56;;;;;;;5.30;4.18;;;20.40;99.90;;;20.76;55.56;98761.00;5095690;28;20108;-77
2022/09/24 08:49:44;;;;;;;8.75;4.38;;;20.40;99.90;;;20.83;55.52;98758.50;5093499;27;20117;-77
2022/09/24 08:52:38;;;;;;;8.30;3.92;;;20.50;99.90;;;20.80;55.38;98756.44;5075014;28;20130;-77
2022/09/24 08:55:34;;;;;;;4.32;3.25;;;20.50;99.90;;;20.83;55.22;98761.25;5078268;27;20374;-77
2022/09/24 08:58:27;;;;;;;6.35;3.67;;;20.50;99.90;;;20.83;55.35;98769.53;5102937;28;20134;-77
2022/09/24 09:01:39;;;;;;;11.43;4.28;;;20.50;99.90;;;20.88;55.14;98757.47;5052132;28;20609;-76
2022/09/24 09:04:45;;;;;;;4.60;3.50;;;20.60;99.90;;;20.94;55.00;98751.41;5057533;28;20052;-77
2022/09/24 09:07:31;;;;;;;8.02;4.13;;;20.60;99.90;;;20.88;55.22;98758.28;5051256;28;20078;-77
2022/09/24 09:10:09;;;;;;;4.43;3.90;;;20.60;99.90;;;20.90;55.19;98747.72;5024439;28;20472;-76
2022/09/24 09:12:47;;;;;;;4.03;3.65;;;20.60;99.90;;;20.92;55.02;98753.69;5020872;28;20064;-75
2022/09/24 09:15:30;;;;;;;6.47;4.13;;;20.70;99.90;;;20.94;54.90;98751.41;5049457;28;20138;-75
2022/09/24 09:18:25;;;;;;;4.95;3.35;;;20.70;99.90;;;21.01;54.90;98743.38;5051219;28;20040;-78
2022/09/24 09:20:51;;;;;;;5.70;4.25;;;20.60;99.90;;;21.07;54.78;98745.91;5064990;28;20555;-78
2022/09/24 09:23:41;;;;;;;8.55;3.97;;;20.70;99.90;;;21.06;54.83;98744.28;5052015;28;20044;-77
2022/09/24 09:26:07;;;;;;;7.50;4.57;;;20.60;99.90;;;21.09;54.70;98740.81;5018062;28;20041;-78
2022/09/24 09:28:34;;;;;;;7.32;4.10;;;20.70;99.90;;;21.03;54.87;98735.53;5048470;28;20047;-77
2022/09/24 09:31:24;;;;;;;4.65;3.65;;;20.70;99.90;;;21.06;54.72;98739.56;5062144;28;20048;-77
2022/09/24 09:33:55;;;;;;;5.57;3.50;;;20.80;99.90;;;21.08;54.64;98736.47;5064173;28;20492;-76
2022/09/24 09:36:55;;;;;;;4.93;3.58;;;20.80;99.90;;;21.08;55.05;98726.22;5063195;28;20472;-76
2022/09/24 09:39:30;;;;;;;15.38;4.88;;;20.80;99.90;;;21.11;54.71;98727.50;5063861;28;20045;-76
2022/09/24 09:42:06;;;;;;;5.15;3.58;;;20.80;99.90;;;21.10;54.81;98723.94;5061469;28;20040;-76
2022/09/24 09:44:40;;;;;;;8.07;4.57;;;20.80;99.90;;;21.05;54.92;98718.66;5040667;28;20045;-76
2022/09/24 09:47:24;;;;;;;5.95;4.28;;;20.80;99.90;;;21.12;54.47;98718.88;5046630;28;20051;-76
2022/09/24 09:49:52;;;;;;;6.85;3.80;;;20.80;99.90;;;21.12;54.61;98720.84;5063460;28;20037;-76
2022/09/24 09:52:23;;;;;;;7.20;4.38;;;20.80;99.90;;;21.23;54.21;98719.22;5041948;28;20128;-76
2022/09/24 09:54:49;;;;;;;6.40;4.07;;;20.80;99.90;;;21.20;54.37;98708.88;5048274;28;20032;-74
2022/09/24 09:57:18;;;;;;;4.38;3.20;;;20.90;99.90;;;21.19;54.62;98707.25;5063475;28;20033;-75
2022/09/24 09:59:50;;;;;;;4.20;3.80;;;20.90;99.90;;;21.17;54.38;98704.06;5090789;28;20483;-75
2022/09/24 10:02:42;;;;;;;4.27;3.47;;;20.90;99.90;;;21.26;54.01;98701.97;5083905;28;20043;-75
2022/09/24 10:05:19;;;;;;;4.40;3.38;;;20.90;99.90;;;21.25;54.26;98700.38;5087048;28;20381;-75
2022/09/24 10:07:45;;;;;;;5.88;4.47;;;21.00;99.90;;;21.29;54.12;98700.47;5085965;28;20505;-75
2022/09/24 10:10:19;;;;;;;9.25;3.70;;;21.00;99.90;;;21.21;54.30;98697.47;5086478;28;20043;-75
2022/09/24 10:12:45;;;;;;;6.85;4.13;;;21.00;99.90;;;21.24;54.32;98693.22;5077344;28;20052;-75
2022/09/24 10:15:17;;;;;;;5.57;3.60;;;21.10;99.90;;;21.33;54.13;98698.63;5087487;28;20048;-75
2022/09/24 10:17:43;;;;;;;6.07;4.20;;;21.00;99.90;;;21.33;54.01;98702.19;5087281;28;20040;-75
2022/09/24 10:20:28;;;;;;;4.90;3.85;;;21.00;99.90;;;21.31;53.92;98698.97;5076267;28;20444;-76
2022/09/24 10:23:03;;;;;;;6.43;3.67;;;21.00;99.90;;;21.35;53.77;98699.91;5091746;27;20047;-75
2022/09/24 10:25:30;;;;;;;7.05;3.70;;;21.00;99.80;;;21.37;53.91;98696.78;5088459;27;20116;-75
2022/09/24 10:31:00;;;;;;;5.13;3.85;;;21.00;99.80;;;21.36;53.81;98701.50;5075411;27;20046;-75
2022/09/24 10:33:34;;;;;;;5.70;4.00;;;21.00;99.80;;;21.33;53.56;98699.44;5085912;27;20122;-75
2022/09/24 10:36:33;;;;;;;4.70;3.30;;;21.00;99.80;;;21.37;53.73;98692.06;5099912;27;20040;-75
2022/09/24 10:39:15;;;;;;;3.65;3.25;;;21.20;99.60;;;21.40;53.52;98699.69;5084385;27;20131;-75
2022/09/24 10:41:49;;;;;;;7.22;4.22;;;21.20;99.30;;;21.43;53.48;98696.22;5103899;27;20044;-75
2022/09/24 10:44:15;;;;;;;4.90;4.07;;;21.30;99.10;;;21.35;53.73;98697.13;5094899;27;20666;-75
2022/09/24 10:46:53;;;;;;;6.88;3.38;;;21.40;99.10;;;21.34;53.61;98689.19;5090859;27;20108;-75